createdAt,value
2018-04-16T00:01:53.246Z,7.50
2018-04-16T00:04:22.044Z,7.50
2018-04-16T00:06:51.721Z,7.40
2018-04-16T00:09:20.597Z,7.40
2018-04-16T00:11:49.463Z,7.40
2018-04-16T00:14:18.416Z,7.40
2018-04-16T00:16:47.321Z,7.40
2018-04-16T00:19:16.130Z,7.40
2018-04-16T00:21:45.267Z,7.40
2018-04-16T00:24:14.875Z,7.40
2018-04-16T00:26:44.245Z,7.30
2018-04-16T00:29:13.232Z,7.40
2018-04-16T00:31:47.569Z,7.40
2018-04-16T00:34:23.374Z,7.30
2018-04-16T00:36:57.777Z,7.30
2018-04-16T00:39:32.996Z,7.40
2018-04-16T00:42:07.346Z,7.40
2018-04-16T00:44:42.164Z,7.40
2018-04-16T00:47:16.464Z,7.40
2018-04-16T00:49:50.862Z,7.40
2018-04-16T00:52:25.122Z,7.40
2018-04-16T00:55:00.131Z,7.40
2018-04-16T00:57:35.448Z,7.40
2018-04-16T01:00:09.976Z,7.40
2018-04-16T01:02:44.507Z,7.40
2018-04-16T01:05:18.910Z,7.40
2018-04-16T01:07:53.365Z,7.40
2018-04-16T01:10:27.607Z,7.40
2018-04-16T01:13:02.026Z,7.30
2018-04-16T01:15:36.289Z,7.30
2018-04-16T01:18:10.786Z,7.30
2018-04-16T01:20:45.171Z,7.30
2018-04-16T01:23:19.958Z,7.40
2018-04-16T01:25:54.292Z,7.40
2018-04-16T01:28:28.882Z,7.40
2018-04-16T01:31:03.310Z,7.40
2018-04-16T01:33:37.675Z,7.50
2018-04-16T01:36:12.481Z,7.50
2018-04-16T01:38:46.848Z,7.50
2018-04-16T01:41:21.882Z,7.50
2018-04-16T01:43:57.025Z,7.50
2018-04-16T01:46:32.525Z,7.50
2018-04-16T01:49:06.984Z,7.50
2018-04-16T01:51:52.226Z,7.50
2018-04-16T01:54:26.595Z,7.50
2018-04-16T01:57:00.918Z,7.50
2018-04-16T01:59:35.416Z,7.50
2018-04-16T02:02:10.479Z,7.40
2018-04-16T02:04:44.745Z,7.40
2018-04-16T02:07:19.129Z,7.40
2018-04-16T02:12:59.914Z,7.40
2018-04-16T02:15:35.023Z,7.30
2018-04-16T02:18:10.367Z,7.30
2018-04-16T02:20:44.598Z,7.30
2018-04-16T02:23:18.902Z,7.30
2018-04-16T02:25:53.239Z,7.30
2018-04-16T02:28:28.404Z,7.30
2018-04-16T02:31:02.779Z,7.30
2018-04-16T02:33:37.124Z,7.30
2018-04-16T02:36:11.474Z,7.40
2018-04-16T02:38:46.919Z,7.40
2018-04-16T02:41:22.010Z,7.40
2018-04-16T02:43:56.354Z,7.40
2018-04-16T02:46:30.663Z,7.40
2018-04-16T02:49:05.164Z,7.40
2018-04-16T02:51:39.453Z,7.50
2018-04-16T02:54:13.910Z,7.50
2018-04-16T02:56:48.777Z,7.60
2018-04-16T02:59:23.261Z,7.60
2018-04-16T03:01:57.697Z,7.60
2018-04-16T03:04:32.035Z,7.60
2018-04-16T03:07:06.266Z,7.60
2018-04-16T03:09:41.089Z,7.60
2018-04-16T03:12:15.430Z,7.70
2018-04-16T03:14:49.853Z,7.70
2018-04-16T03:17:24.904Z,7.80
2018-04-16T03:19:59.301Z,7.70
2018-04-16T03:22:34.382Z,7.80
2018-04-16T03:25:08.884Z,7.80
2018-04-16T03:27:43.113Z,7.80
2018-04-16T03:30:17.520Z,7.80
2018-04-16T03:32:52.246Z,7.80
2018-04-16T03:35:26.599Z,7.80
2018-04-16T03:38:01.462Z,7.80
2018-04-16T03:40:35.940Z,7.80
2018-04-16T03:43:10.397Z,7.80
2018-04-16T03:45:45.084Z,7.80
2018-04-16T03:48:19.440Z,7.80
2018-04-16T03:50:53.732Z,7.80
2018-04-16T03:53:23.630Z,7.80
2018-04-16T03:56:07.769Z,7.80
2018-04-16T03:58:36.717Z,7.80
2018-04-16T04:01:05.901Z,7.80
2018-04-16T04:03:34.690Z,7.90
2018-04-16T04:06:03.669Z,7.90
2018-04-16T04:08:32.879Z,7.90
2018-04-16T04:11:01.758Z,7.90
2018-04-16T04:13:30.703Z,7.90
2018-04-16T04:15:59.595Z,7.90
2018-04-16T04:18:34.236Z,7.90
2018-04-16T04:21:03.035Z,7.90
2018-04-16T04:23:44.450Z,7.90
2018-04-16T04:26:25.014Z,7.90
2018-04-16T04:29:05.675Z,7.90
2018-04-16T04:31:34.496Z,7.90
2018-04-16T04:34:03.514Z,8.00
2018-04-16T04:36:32.321Z,8.00
2018-04-16T04:39:01.902Z,8.00
2018-04-16T04:41:30.830Z,8.00
2018-04-16T04:43:59.637Z,8.00
2018-04-16T04:46:29.440Z,8.10
2018-04-16T04:48:59.099Z,8.10
2018-04-16T04:51:27.915Z,8.10
2018-04-16T04:53:56.778Z,8.10
2018-04-16T04:56:25.704Z,8.10
2018-04-16T04:58:54.544Z,8.10
2018-04-16T05:01:24.142Z,8.10
2018-04-16T05:03:53.767Z,8.10
2018-04-16T05:06:23.483Z,8.10
2018-04-16T05:08:53.160Z,8.10
2018-04-16T05:11:21.986Z,8.10
2018-04-16T05:13:51.574Z,8.20
2018-04-16T05:16:20.720Z,8.10
2018-04-16T05:18:49.521Z,8.20
2018-04-16T05:21:18.323Z,8.20
2018-04-16T05:23:47.226Z,8.30
2018-04-16T05:26:16.021Z,8.30
2018-04-16T05:28:45.227Z,8.30
2018-04-16T05:31:14.555Z,8.40
2018-04-16T05:33:43.347Z,8.40
2018-04-16T05:36:12.671Z,8.50
2018-04-16T05:38:41.934Z,8.50
2018-04-16T05:41:11.128Z,8.60
2018-04-16T05:43:40.896Z,8.70
2018-04-16T05:46:10.035Z,8.70
2018-04-16T05:48:39.014Z,8.70
2018-04-16T05:51:07.978Z,8.80
2018-04-16T05:53:36.947Z,8.80
2018-04-16T05:56:06.121Z,8.90
2018-04-16T05:58:35.039Z,9.00
2018-04-16T06:01:03.846Z,9.00
2018-04-16T06:03:32.637Z,9.00
2018-04-16T06:06:01.787Z,9.10
2018-04-16T06:08:30.675Z,9.10
2018-04-16T06:10:59.992Z,9.20
2018-04-16T06:13:28.921Z,9.20
2018-04-16T06:15:57.787Z,9.20
2018-04-16T06:18:26.583Z,9.30
2018-04-16T06:20:55.478Z,9.30
2018-04-16T06:23:24.275Z,9.40
2018-04-16T06:25:53.267Z,9.40
2018-04-16T06:28:22.154Z,9.40
2018-04-16T06:30:51.123Z,9.50
2018-04-16T06:33:20.743Z,9.50
2018-04-16T06:35:50.484Z,9.50
2018-04-16T06:38:19.277Z,9.50
2018-04-16T06:40:48.088Z,9.60
2018-04-16T06:43:16.967Z,9.60
2018-04-16T06:45:45.762Z,9.60
2018-04-16T06:48:14.546Z,9.60
2018-04-16T06:50:43.478Z,9.70
2018-04-16T06:53:12.789Z,9.70
2018-04-16T06:55:42.460Z,9.80
2018-04-16T06:58:11.512Z,9.80
2018-04-16T07:00:41.986Z,9.90
2018-04-16T07:03:10.882Z,9.90
2018-04-16T07:05:39.852Z,9.90
2018-04-16T07:08:09.140Z,10.00
2018-04-16T07:10:38.048Z,10.00
2018-04-16T07:13:06.940Z,10.10
2018-04-16T07:15:37.421Z,10.10
2018-04-16T07:18:06.363Z,10.10
2018-04-16T07:20:35.550Z,10.10
2018-04-16T07:23:04.817Z,10.10
2018-04-16T07:25:33.700Z,10.10
2018-04-16T07:28:03.878Z,10.20
2018-04-16T07:30:33.624Z,10.20
2018-04-16T07:33:02.491Z,10.20
2018-04-16T07:35:32.141Z,10.40
2018-04-16T07:38:01.080Z,10.30
2018-04-16T07:40:30.313Z,10.40
2018-04-16T07:43:00.654Z,10.50
2018-04-16T07:45:29.640Z,10.50
2018-04-16T07:47:58.535Z,10.60
2018-04-16T07:50:28.261Z,10.70
2018-04-16T07:52:57.194Z,10.70
2018-04-16T07:55:26.054Z,10.70
2018-04-16T07:57:55.032Z,10.60
2018-04-16T08:00:24.741Z,10.70
2018-04-16T08:02:54.542Z,10.70
2018-04-16T08:05:23.460Z,10.70
2018-04-16T08:07:52.442Z,10.80
2018-04-16T08:10:22.173Z,10.80
2018-04-16T08:12:51.931Z,10.90
2018-04-16T08:15:20.847Z,10.90
2018-04-16T08:17:49.815Z,11.00
2018-04-16T08:20:18.748Z,11.10
2018-04-16T08:22:47.643Z,11.20
2018-04-16T08:25:18.002Z,11.40
2018-04-16T08:27:46.915Z,11.40
2018-04-16T08:30:15.813Z,11.50
2018-04-16T08:32:44.779Z,11.50
2018-04-16T08:35:14.500Z,11.60
2018-04-16T08:37:43.434Z,11.60
2018-04-16T08:40:12.416Z,11.70
2018-04-16T08:42:41.336Z,11.70
2018-04-16T08:45:10.220Z,11.70
2018-04-16T08:47:39.153Z,11.60
2018-04-16T08:50:08.318Z,11.60
2018-04-16T08:52:37.242Z,11.60
2018-04-16T08:55:06.238Z,11.70
2018-04-16T08:57:35.109Z,11.60
2018-04-16T09:00:04.234Z,11.70
2018-04-16T09:02:33.369Z,11.80
2018-04-16T09:05:02.740Z,11.90
2018-04-16T09:07:31.626Z,11.90
2018-04-16T09:10:00.608Z,11.90
2018-04-16T09:12:29.508Z,12.00
2018-04-16T09:14:58.785Z,12.00
2018-04-16T09:17:27.769Z,12.00
2018-04-16T09:19:56.677Z,12.10
2018-04-16T09:22:25.622Z,12.20
2018-04-16T09:24:54.612Z,12.30
2018-04-16T09:27:23.909Z,12.40
2018-04-16T09:29:52.911Z,12.40
2018-04-16T09:32:21.741Z,12.40
2018-04-16T09:34:51.380Z,12.50
2018-04-16T09:37:20.324Z,12.50
2018-04-16T09:39:49.360Z,12.50
2018-04-16T09:42:19.468Z,12.50
2018-04-16T09:44:49.158Z,12.50
2018-04-16T09:47:18.473Z,12.50
2018-04-16T09:49:48.163Z,12.70
2018-04-16T09:52:17.765Z,12.70
2018-04-16T09:54:46.646Z,12.80
2018-04-16T09:57:15.546Z,12.90
2018-04-16T09:59:44.482Z,13.10
2018-04-16T10:02:19.739Z,13.20
2018-04-16T10:04:49.618Z,13.30
2018-04-16T10:07:18.847Z,13.30
2018-04-16T10:09:47.707Z,13.40
2018-04-16T10:12:17.420Z,13.50
2018-04-16T10:14:46.868Z,13.50
2018-04-16T10:17:16.530Z,13.60
2018-04-16T10:19:45.456Z,13.60
2018-04-16T10:22:14.396Z,13.60
2018-04-16T10:24:43.629Z,13.60
2018-04-16T10:27:13.233Z,13.60
2018-04-16T10:29:42.187Z,13.60
2018-04-16T10:32:11.882Z,13.70
2018-04-16T10:34:40.829Z,13.70
2018-04-16T10:37:09.727Z,13.80
2018-04-16T10:39:38.524Z,13.80
2018-04-16T10:42:07.389Z,13.90
2018-04-16T10:44:36.999Z,13.90
2018-04-16T10:47:06.663Z,13.90
2018-04-16T10:49:36.631Z,14.00
2018-04-16T10:52:06.267Z,13.90
2018-04-16T10:54:35.131Z,13.90
2018-04-16T10:57:05.597Z,13.90
2018-04-16T10:59:34.474Z,14.00
2018-04-16T11:02:03.342Z,14.00
2018-04-16T11:04:33.152Z,14.00
2018-04-16T11:07:02.001Z,14.00
2018-04-16T11:09:30.975Z,14.00
2018-04-16T11:11:59.830Z,14.10
2018-04-16T11:14:29.167Z,14.10
2018-04-16T11:16:58.997Z,14.20
2018-04-16T11:19:28.121Z,14.20
2018-04-16T11:21:57.034Z,14.30
2018-04-16T11:24:26.332Z,14.40
2018-04-16T11:26:55.222Z,14.40
2018-04-16T11:29:24.278Z,14.50
2018-04-16T11:31:53.985Z,14.60
2018-04-16T11:34:23.606Z,14.70
2018-04-16T11:36:53.816Z,14.70
2018-04-16T11:39:23.464Z,14.70
2018-04-16T11:41:52.354Z,14.70
2018-04-16T11:44:21.277Z,14.70
2018-04-16T11:46:50.211Z,14.70
2018-04-16T11:49:19.085Z,14.60
2018-04-16T11:51:48.007Z,14.60
2018-04-16T11:54:16.936Z,14.60
2018-04-16T11:56:45.982Z,14.60
2018-04-16T11:59:15.727Z,14.60
2018-04-16T12:01:44.665Z,14.60
2018-04-16T12:04:13.590Z,14.60
2018-04-16T12:06:42.547Z,14.70
2018-04-16T12:09:11.462Z,14.70
2018-04-16T12:11:40.802Z,14.70
2018-04-16T12:14:10.375Z,14.90
2018-04-16T12:16:39.212Z,14.90
2018-04-16T12:19:08.986Z,14.90
2018-04-16T12:21:38.207Z,14.90
2018-04-16T12:24:07.058Z,15.00
2018-04-16T12:26:35.903Z,15.00
2018-04-16T12:29:04.727Z,15.00
2018-04-16T12:31:33.824Z,15.00
2018-04-16T12:34:02.707Z,15.00
2018-04-16T12:36:31.535Z,15.00
2018-04-16T12:39:01.148Z,15.10
2018-04-16T12:41:29.962Z,15.10
2018-04-16T12:43:59.344Z,15.20
2018-04-16T12:46:28.164Z,15.20
2018-04-16T12:48:56.958Z,15.20
2018-04-16T12:51:25.822Z,15.20
2018-04-16T12:53:54.618Z,15.30
2018-04-16T12:56:23.417Z,15.30
2018-04-16T12:58:52.280Z,15.30
2018-04-16T13:01:21.905Z,15.20
2018-04-16T13:03:50.738Z,15.20
2018-04-16T13:06:19.637Z,15.10
2018-04-16T13:08:48.901Z,15.10
2018-04-16T13:11:17.691Z,15.10
2018-04-16T13:13:46.538Z,15.10
2018-04-16T13:16:15.702Z,15.10
2018-04-16T13:18:44.609Z,15.10
2018-04-16T13:21:13.419Z,15.10
2018-04-16T13:23:42.212Z,15.20
2018-04-16T13:26:11.071Z,15.30
2018-04-16T13:28:40.627Z,15.50
2018-04-16T13:31:09.806Z,15.40
2018-04-16T13:33:38.654Z,15.50
2018-04-16T13:36:08.218Z,15.40
2018-04-16T13:38:37.031Z,15.40
2018-04-16T13:41:05.907Z,15.30
2018-04-16T13:43:34.714Z,15.40
2018-04-16T13:46:03.521Z,15.30
2018-04-16T13:48:32.429Z,15.40
2018-04-16T13:51:01.997Z,15.50
2018-04-16T13:53:31.184Z,15.60
2018-04-16T13:56:00.062Z,15.60
2018-04-16T13:58:28.859Z,15.70
2018-04-16T14:00:57.675Z,15.70
2018-04-16T14:03:26.519Z,15.70
2018-04-16T14:05:56.101Z,15.80
2018-04-16T14:08:25.476Z,15.80
2018-04-16T14:10:54.335Z,15.80
2018-04-16T14:13:23.576Z,15.90
2018-04-16T14:15:52.511Z,15.80
2018-04-16T14:18:21.463Z,15.90
2018-04-16T14:20:50.346Z,15.90
2018-04-16T14:23:19.240Z,15.90
2018-04-16T14:25:48.296Z,15.80
2018-04-16T14:28:17.204Z,15.80
2018-04-16T14:30:46.718Z,15.80
2018-04-16T14:33:17.481Z,15.80
2018-04-16T14:35:49.386Z,15.60
2018-04-16T14:38:19.011Z,15.70
2018-04-16T14:40:48.588Z,15.70
2018-04-16T14:43:17.530Z,15.80
2018-04-16T14:45:47.183Z,15.70
2018-04-16T14:48:16.270Z,15.70
2018-04-16T14:50:45.095Z,15.70
2018-04-16T14:53:13.898Z,15.60
2018-04-16T14:55:42.831Z,15.60
2018-04-16T14:58:12.472Z,15.40
2018-04-16T15:00:41.408Z,15.40
2018-04-16T15:03:10.319Z,15.30
2018-04-16T15:05:39.237Z,15.20
2018-04-16T15:08:08.432Z,15.20
2018-04-16T15:10:37.650Z,15.20
2018-04-16T15:13:06.584Z,15.20
2018-04-16T15:15:35.453Z,15.20
2018-04-16T15:18:04.737Z,15.20
2018-04-16T15:20:33.690Z,15.20
2018-04-16T15:23:02.846Z,15.20
2018-04-16T15:25:31.721Z,15.20
2018-04-16T15:28:01.490Z,15.30
2018-04-16T15:30:30.715Z,15.20
2018-04-16T15:32:59.776Z,15.30
2018-04-16T15:35:28.655Z,15.30
2018-04-16T15:37:57.490Z,15.30
2018-04-16T15:40:26.298Z,15.30
2018-04-16T15:42:55.582Z,15.20
2018-04-16T15:45:24.821Z,15.20
2018-04-16T15:47:54.376Z,15.10
2018-04-16T15:50:23.306Z,15.10
2018-04-16T15:52:52.123Z,15.10
2018-04-16T15:55:21.684Z,15.10
2018-04-16T15:57:50.594Z,15.10
2018-04-16T16:00:19.362Z,15.10
2018-04-16T16:02:48.130Z,15.10
2018-04-16T16:05:16.999Z,15.00
2018-04-16T16:07:46.027Z,15.00
2018-04-16T16:10:14.838Z,15.00
2018-04-16T16:12:43.670Z,15.00
2018-04-16T16:15:12.576Z,14.90
2018-04-16T16:17:41.763Z,14.90
2018-04-16T16:20:10.628Z,14.90
2018-04-16T16:22:39.411Z,14.80
2018-04-16T16:25:08.222Z,14.80
2018-04-16T16:27:37.882Z,14.60
2018-04-16T16:30:07.446Z,14.60
2018-04-16T16:32:37.447Z,14.50
2018-04-16T16:35:06.273Z,14.50
2018-04-16T16:37:35.034Z,14.50
2018-04-16T16:40:03.990Z,14.50
2018-04-16T16:42:33.562Z,14.30
2018-04-16T16:45:02.332Z,14.30
2018-04-16T16:47:31.243Z,14.20
2018-04-16T16:50:00.149Z,14.20
2018-04-16T16:52:29.293Z,14.10
2018-04-16T16:54:58.828Z,14.10
2018-04-16T16:57:27.694Z,14.10
2018-04-16T16:59:56.946Z,14.10
2018-04-16T17:02:25.766Z,14.00
2018-04-16T17:04:54.670Z,14.00
2018-04-16T17:07:23.772Z,13.90
2018-04-16T17:09:52.558Z,13.90
2018-04-16T17:12:21.390Z,13.90
2018-04-16T17:14:50.459Z,13.90
2018-04-16T17:17:20.059Z,13.80
2018-04-16T17:19:49.470Z,13.80
2018-04-16T17:22:19.087Z,13.60
2018-04-16T17:24:48.677Z,13.50
2018-04-16T17:27:18.415Z,13.40
2018-04-16T17:29:47.490Z,13.40
2018-04-16T17:32:16.266Z,13.30
2018-04-16T17:34:45.203Z,13.20
2018-04-16T17:37:14.761Z,13.20
2018-04-16T17:39:43.571Z,13.20
2018-04-16T17:42:12.520Z,13.20
2018-04-16T17:44:41.336Z,13.10
2018-04-16T17:47:10.222Z,13.10
2018-04-16T17:49:39.058Z,13.10
2018-04-16T17:52:07.980Z,13.10
2018-04-16T17:54:37.074Z,13.10
2018-04-16T17:57:06.754Z,13.10
2018-04-16T17:59:35.590Z,13.10
2018-04-16T18:02:05.158Z,13.10
2018-04-16T18:04:34.078Z,13.10
2018-04-16T18:07:03.145Z,13.10
2018-04-16T18:09:32.875Z,13.00
2018-04-16T18:12:02.009Z,13.00
2018-04-16T18:14:30.974Z,13.00
2018-04-16T18:17:00.088Z,13.00
2018-04-16T18:19:29.090Z,13.00
2018-04-16T18:21:58.908Z,12.90
2018-04-16T18:24:27.798Z,12.90
2018-04-16T18:26:56.650Z,12.90
2018-04-16T18:29:26.213Z,12.80
2018-04-16T18:31:55.231Z,12.80
2018-04-16T18:34:24.839Z,12.80
2018-04-16T18:36:54.079Z,12.80
2018-04-16T18:39:22.905Z,12.80
2018-04-16T18:41:52.085Z,12.70
2018-04-16T18:44:21.067Z,12.70
2018-04-16T18:46:49.838Z,12.70
2018-04-16T18:49:18.614Z,12.70
2018-04-16T18:51:48.225Z,12.60
2018-04-16T18:54:17.745Z,12.60
2018-04-16T18:56:46.527Z,12.60
2018-04-16T18:59:16.202Z,12.50
2018-04-16T19:01:44.966Z,12.50
2018-04-16T19:04:13.742Z,12.50
2018-04-16T19:06:42.957Z,12.50
2018-04-16T19:09:11.730Z,12.50
2018-04-16T19:11:41.048Z,12.40
2018-04-16T19:14:09.878Z,12.40
2018-04-16T19:16:38.714Z,12.40
2018-04-16T19:19:08.343Z,12.30
2018-04-16T19:21:43.039Z,12.30
2018-04-16T19:24:11.839Z,12.20
2018-04-16T19:26:46.554Z,12.20
2018-04-16T19:29:15.584Z,12.20
2018-04-16T19:31:45.694Z,12.20
2018-04-16T19:34:20.962Z,12.10
2018-04-16T19:36:49.770Z,12.10
2018-04-16T19:39:18.573Z,12.10
2018-04-16T19:41:53.852Z,11.90
2018-04-16T19:44:23.546Z,11.90
2018-04-16T19:46:52.412Z,11.90
2018-04-16T19:49:36.169Z,11.90
2018-04-16T19:52:05.393Z,11.80
2018-04-16T19:54:34.576Z,11.80
2018-04-16T19:57:09.044Z,11.80
2018-04-16T19:59:38.124Z,11.70
2018-04-16T20:02:13.389Z,11.70
2018-04-16T20:04:42.359Z,11.60
2018-04-16T20:07:11.318Z,11.60
2018-04-16T20:09:40.717Z,11.60
2018-04-16T20:12:09.799Z,11.60
2018-04-16T20:14:38.594Z,11.60
2018-04-16T20:17:07.532Z,11.60
2018-04-16T20:19:36.414Z,11.50
2018-04-16T20:22:05.293Z,11.50
2018-04-16T20:24:34.296Z,11.50
2018-04-16T20:27:03.603Z,11.40
2018-04-16T20:29:32.856Z,11.40
2018-04-16T20:32:01.837Z,11.30
2018-04-16T20:34:31.619Z,11.20
2018-04-16T20:37:01.063Z,11.20
2018-04-16T20:39:31.112Z,11.20
2018-04-16T20:42:00.000Z,11.10
2018-04-16T20:44:29.060Z,11.10
2018-04-16T20:46:58.017Z,11.00
2018-04-16T20:49:26.921Z,11.00
2018-04-16T20:51:55.777Z,11.00
2018-04-16T20:54:25.033Z,11.00
2018-04-16T20:56:54.348Z,10.90
2018-04-16T20:59:23.203Z,10.90
2018-04-16T21:01:52.180Z,10.90
2018-04-16T21:04:21.105Z,10.90
2018-04-16T21:06:49.979Z,10.90
2018-04-16T21:09:18.998Z,10.90
2018-04-16T21:11:47.857Z,10.90
2018-04-16T21:14:16.745Z,10.80
2018-04-16T21:16:46.474Z,10.80
2018-04-16T21:19:15.405Z,10.80
2018-04-16T21:21:45.118Z,10.80
2018-04-16T21:24:14.538Z,10.70
2018-04-16T21:26:43.824Z,10.70
2018-04-16T21:29:12.807Z,10.70
2018-04-16T21:31:41.760Z,10.70
2018-04-16T21:34:11.019Z,10.70
2018-04-16T21:36:40.373Z,10.60
2018-04-16T21:39:10.086Z,10.60
2018-04-16T21:41:39.331Z,10.60
2018-04-16T21:44:08.204Z,10.60
2018-04-16T21:46:37.228Z,10.60
2018-04-16T21:49:06.076Z,10.60
2018-04-16T21:51:35.341Z,10.50
2018-04-16T21:54:05.815Z,10.50
2018-04-16T21:56:35.448Z,10.50
2018-04-16T21:59:04.591Z,10.50
2018-04-16T22:01:33.570Z,10.50
2018-04-16T22:04:02.828Z,10.40
2018-04-16T22:06:33.091Z,10.40
2018-04-16T22:09:02.030Z,10.40
2018-04-16T22:11:31.241Z,10.40
2018-04-16T22:14:00.647Z,10.40
2018-04-16T22:16:30.109Z,10.40
2018-04-16T22:18:59.994Z,10.30
2018-04-16T22:21:28.837Z,10.20
2018-04-16T22:23:57.762Z,10.30
2018-04-16T22:26:26.646Z,10.30
2018-04-16T22:28:55.801Z,10.30
2018-04-16T22:31:24.707Z,10.20
2018-04-16T22:33:54.484Z,10.30
2018-04-16T22:36:23.377Z,10.20
2018-04-16T22:38:53.106Z,10.20
2018-04-16T22:41:21.985Z,10.20
2018-04-16T22:43:50.874Z,10.20
2018-04-16T22:46:20.604Z,10.20
2018-04-16T22:48:49.483Z,10.20
2018-04-16T22:51:19.209Z,10.20
2018-04-16T22:53:49.828Z,10.20
2018-04-16T22:56:18.928Z,10.20
2018-04-16T22:58:48.568Z,10.10
2018-04-16T23:01:17.536Z,10.10
2018-04-16T23:03:48.080Z,10.00
2018-04-16T23:06:16.973Z,10.00
2018-04-16T23:08:46.698Z,10.00
2018-04-16T23:11:15.861Z,10.00
2018-04-16T23:13:45.598Z,10.00
2018-04-16T23:16:15.486Z,10.00
2018-04-16T23:18:44.444Z,10.00
2018-04-16T23:21:13.323Z,10.00
2018-04-16T23:23:42.413Z,9.90
2018-04-16T23:26:12.535Z,9.90
2018-04-16T23:28:42.121Z,9.90
2018-04-16T23:31:11.367Z,9.80
2018-04-16T23:33:40.256Z,9.80
2018-04-16T23:36:09.151Z,9.80
2018-04-16T23:38:38.130Z,9.80
2018-04-16T23:41:07.766Z,9.70
2018-04-16T23:43:36.606Z,9.70
2018-04-16T23:46:06.327Z,9.70
2018-04-16T23:48:35.491Z,9.60
2018-04-16T23:51:04.961Z,9.60
2018-04-16T23:53:35.398Z,9.50
2018-04-16T23:56:05.871Z,9.50
2018-04-16T23:58:34.794Z,9.50
